EW3232 Weather Reports


time (UTC)temp
C
wind
direction
speed
KPH
gust
KPH
rain 1hr
cm
rain 24hr
cm
rain mn
cm
humidity
%
barometer
mb
20190423083109 14 215 1.6 8.0 0.00 0.89 0.00 75 998.2
20190423075010 12 68 0.0 3.2 0.00 0.89 0.00 86 998.0
20190423074513 12 8 1.6 8.0 0.00 0.89 0.00 86 998.0
20190423074036 12 339 0.0 8.0 0.00 0.89 0.00 86 998.1
20190423073121 12 27 0.0 0.0 0.00 0.89 0.00 83 998.0
20190423072510 12 27 0.0 0.0 0.00 0.89 0.00 84 997.9
20190423072027 12 27 0.0 1.6 0.00 0.89 0.00 85 997.9
20190423071525 12 27 0.0 3.2 0.00 0.89 0.00 87 997.9
20190423071044 11 27 0.0 9.7 0.00 0.89 0.00 87 998.0
20190423070531 11 12 1.6 9.7 0.00 0.89 0.00 87 998.1
20190423070042 10 313 6.4 9.7 0.00 0.89 0.00 88 998.1
20190423063511 10 33 0.0 6.4 0.00 0.89 0.00 90 997.7
20190423063016 10 31 3.2 9.7 0.00 0.89 0.00 89 997.7
20190423062527 10 358 3.2 11.3 0.00 0.89 0.00 88 997.8
20190423062010 10 287 3.2 6.4 0.00 0.89 0.00 90 997.8
20190423061539 10 197 1.6 4.8 0.00 0.89 0.00 89 997.7
20190423061002 10 305 1.6 3.2 0.00 0.89 0.00 89 997.7
20190423060042 9 10 0.0 11.3 0.00 0.89 0.00 91 997.8
20190423054541 8 296 1.6 6.4 0.00 0.89 0.00 94 997.8
20190423054002 7 244 0.0 4.8 0.00 0.89 0.00 94 997.8
20190423052058 7 323 3.2 6.4 0.00 0.89 0.00 95 997.5
20190423050555 7 326 3.2 8.0 0.00 0.89 0.00 94 997.5
20190423050044 7 314 6.4 8.0 0.00 0.89 0.00 93 997.6
20190423043531 7 322 1.6 4.8 0.00 0.89 0.00 93 997.5
20190423043120 7 31 1.6 3.2 0.00 0.89 0.00 93 997.5
20190423042016 7 36 0.0 4.8 0.00 0.89 0.00 93 997.6
20190423041503 7 335 1.6 4.8 0.00 0.89 0.00 93 997.5
20190423040552 8 21 0.0 3.2 0.00 0.89 0.00 92 997.5
20190423040115 8 24 0.0 3.2 0.00 0.89 0.00 92 997.7
20190423035047 8 114 0.0 3.2 0.00 0.89 0.00 91 997.7
20190423034611 8 115 0.0 9.7 0.00 0.89 0.00 91 997.7
20190423032528 9 235 1.6 8.0 0.00 0.89 0.00 90 997.8
20190423032032 9 249 3.2 9.7 0.00 0.89 0.00 90 997.8
20190423030107 8 31 0.0 8.0 0.00 0.89 0.00 92 997.9
20190423025041 8 267 4.8 11.3 0.00 0.89 0.00 94 997.9
20190423024533 8 339 0.0 3.2 0.00 0.89 0.00 92 997.8
20190423023503 8 346 0.0 8.0 0.00 0.89 0.00 92 997.9
20190423023038 8 327 3.2 8.0 0.00 0.89 0.00 92 997.9
20190423020525 8 304 1.6 11.3 0.00 0.89 0.00 92 998.2
20190423014525 9 273 3.2 6.4 0.00 0.89 0.00 93 998.5
20190423014009 9 273 3.2 4.8 0.00 0.89 0.00 93 998.6
20190423013528 9 358 0.0 1.6 0.00 0.89 0.00 93 998.6
20190423013033 9 32 0.0 0.0 0.00 0.89 0.00 92 998.6
20190423011003 10 320 0.0 3.2 0.00 0.89 0.00 91 998.8
20190423005052 10 263 4.8 16.1 0.00 0.89 0.00 90 999.0
20190423004554 10 296 9.7 16.1 0.00 0.89 0.00 90 999.0
20190423004038 10 302 4.8 12.9 0.00 0.89 0.00 92 998.9
20190423003527 9 278 6.4 12.9 0.00 0.89 0.00 93 998.9
20190423002505 10 360 0.0 4.8 0.00 0.89 0.00 91 998.9
20190423001530 10 335 3.2 8.0 0.00 0.89 0.00 92 999.1
20190423001027 10 357 3.2 8.0 0.00 0.89 0.00 92 999.2
20190423000047 10 276 0.0 4.8 0.00 0.89 0.00 93 999.4
20190422234515 10 327 0.0 0.0 0.00 0.89 0.00 93 999.3
20190422234032 10 327 0.0 1.6 0.00 0.89 0.00 93 999.5
20190422231548 11 323 0.0 6.4 0.00 0.89 0.00 91 999.8
20190422231009 10 305 3.2 6.4 0.00 0.89 0.00 92 999.9
20190422230546 10 309 4.8 6.4 0.00 0.89 0.00 92 1000.0
20190422230228 10 320 3.2 6.4 0.00 0.89 0.00 93 1000.0
20190422224015 10 318 3.2 8.0 0.00 0.89 0.00 92 1000.1
20190422223535 10 297 4.8 8.0 0.00 0.89 0.00 92 1000.2
20190422223205 10 275 1.6 6.4 0.00 0.89 0.00 92 1000.2
20190422222516 10 244 3.2 6.4 0.03 0.89 0.00 92 1000.3
20190422222055 10 300 1.6 8.0 0.03 0.89 0.00 93 1000.2
20190422215053 10 322 1.6 4.8 0.05 0.89 0.89 93 1000.4
20190422214638 10 317 1.6 4.8 0.08 0.89 0.89 94 1000.5
20190422213507 10 348 1.6 3.2 0.10 0.89 0.89 94 1000.6
20190422211538 10 8 0.0 0.0 0.20 0.89 0.89 93 1000.8
20190422210531 10 335 0.0 0.0 0.30 0.89 0.89 93 1000.9
20190422205527 10 335 0.0 1.6 0.36 0.86 0.86 93 1000.9
20190422205022 10 334 0.0 3.2 0.41 0.84 0.84 93 1000.9
20190422202004 10 296 3.2 11.3 0.33 0.71 0.71 92 1000.9
20190422201535 10 294 3.2 6.4 0.28 0.66 0.66 93 1000.9
20190422200556 10 291 3.2 4.8 0.20 0.58 0.58 93 1000.8
20190422195528 10 8 1.6 3.2 0.10 0.48 0.48 92 1000.8
20190422192515 10 344 0.0 3.2 0.05 0.41 0.41 92 1000.4
20190422191517 10 352 0.0 1.6 0.05 0.38 0.38 91 1000.4
20190422190541 11 337 0.0 0.0 0.05 0.38 0.38 90 1000.2
20190422185019 11 319 0.0 4.8 0.08 0.38 0.38 89 1000.1
20190422184636 11 349 1.6 3.2 0.08 0.38 0.38 90 1000.0
20190422183534 11 320 1.6 0.0 0.00 0.00 0.36 91 1000.0
20190422182546 11 333 3.2 4.8 0.15 0.36 0.36 90 999.8
20190422182045 11 334 1.6 3.2 0.23 0.36 0.36 89 999.9
20190422181623 11 334 1.6 4.8 0.23 0.33 0.33 88 999.9
20190422181006 11 333 1.6 8.0 0.33 0.33 0.33 88 999.9
20190422180544 11 15 3.2 9.7 0.30 0.33 0.33 85 999.8
20190422175524 11 344 4.8 11.3 0.30 0.33 0.33 87 999.7
20190422175029 11 349 4.8 11.3 0.28 0.30 0.30 87 999.7
20190422174010 11 328 6.4 14.5 0.25 0.28 0.28 86 999.6
20190422173027 11 357 8.0 14.5 0.20 0.23 0.23 84 999.8
20190422172011 11 355 8.0 19.3 0.13 0.15 0.15 81 1000.0
20190422170531 12 17 8.0 14.5 0.00 0.03 0.03 77 1000.0
20190422164604 12 19 0.0 3.2 0.00 0.03 0.03 76 999.9
20190422164007 12 360 0.0 1.6 0.00 0.03 0.03 75 999.9
20190422163542 12 360 0.0 3.2 0.00 0.03 0.03 74 1000.0
20190422162512 12 26 3.2 8.0 0.00 0.03 0.03 73 1000.0
20190422161640 13 334 4.8 11.3 0.00 0.03 0.03 72 999.9
20190422160022 13 350 3.2 12.9 0.00 0.03 0.03 71 1000.0
20190422155557 13 334 4.8 12.9 0.00 0.03 0.03 71 1000.0
20190422155045 13 25 0.0 4.8 0.00 0.03 0.03 71 1000.2
20190422153535 13 334 3.2 11.3 0.00 0.03 0.03 69 1000.2
20190422153050 13 320 8.0 11.3 0.00 0.03 0.03 68 1000.2
20190422152010 13 327 8.0 12.9 0.00 0.03 0.03 68 1000.2
20190422150516 13 324 8.0 11.3 0.00 0.03 0.03 67 1000.2
20190422150117 13 312 4.8 12.9 0.00 0.03 0.03 68 1000.2
20190422145533 13 305 6.4 12.9 0.00 0.03 0.03 68 1000.3
20190422144019 13 352 4.8 9.7 0.00 0.03 0.03 68 1000.2
20190422143106 13 304 4.8 12.9 0.00 0.03 0.03 68 1000.2
20190422142522 13 326 8.0 12.9 0.00 0.03 0.03 68 1000.2
20190422142046 13 327 4.8 9.7 0.00 0.03 0.03 68 1000.3
20190422141602 13 290 3.2 11.3 0.00 0.03 0.03 67 1000.3
20190422141034 13 353 1.6 11.3 0.00 0.03 0.03 67 1000.4
20190422135013 13 346 3.2 16.1 0.00 0.03 0.03 67 1000.5
20190422134521 13 334 9.7 14.5 0.00 0.03 0.03 66 1000.5
20190422134028 13 328 4.8 12.9 0.00 0.03 0.03 67 1000.5
20190422133526 13 293 4.8 12.9 0.00 0.03 0.03 67 1000.5
20190422132001 13 38 6.4 17.7 0.00 0.03 0.03 66 1000.6
20190422131605 13 320 6.4 14.5 0.00 0.03 0.03 66 1000.5
20190422130554 13 340 9.7 19.3 0.00 0.03 0.03 66 1000.6
20190422130004 13 304 9.7 29.0 0.00 0.03 0.03 66 1000.5
20190422125520 13 306 9.7 17.7 0.00 0.03 0.03 66 1000.5
20190422123530 13 297 12.9 20.9 0.00 0.03 0.03 66 1000.5
20190422123037 13 321 8.0 19.3 0.00 0.03 0.03 65 1000.5
20190422121512 13 39 3.2 19.3 0.00 0.03 0.03 67 1000.7
20190422121011 13 343 9.7 22.5 0.00 0.03 0.03 67 1000.7
20190422120543 13 285 9.7 22.5 0.00 0.03 0.03 68 1000.8
20190422120013 13 301 9.7 16.1 0.00 0.03 0.03 68 1000.9
20190422115527 13 1 8.0 14.5 0.00 0.03 0.03 69 1001.1
20190422115013 12 305 6.4 22.5 0.00 0.03 0.03 71 1001.2
20190422114030 12 313 9.7 14.5 0.00 0.03 0.03 71 1001.4
20190422113513 12 24 8.0 20.9 0.00 0.03 0.03 72 1001.5
20190422112511 12 16 9.7 22.5 0.00 0.03 0.03 71 1001.8
20190422111515 12 44 14.5 25.7 0.00 0.03 0.03 71 1001.9
20190422110546 12 36 9.7 20.9 0.00 0.03 0.03 71 1001.9
20190422110143 12 323 8.0 20.9 0.00 0.03 0.03 71 1002.0
20190422105507 12 310 12.9 20.9 0.00 0.03 0.03 70 1001.9
20190422105008 12 345 12.9 22.5 0.00 0.03 0.03 71 1001.9
20190422104050 13 329 6.4 16.1 0.00 0.03 0.03 71 1002.0
20190422103539 13 323 8.0 16.1 0.00 0.03 0.03 70 1002.0
20190422102039 12 357 4.8 12.9 0.00 0.03 0.03 70 1002.1
20190422095007 12 22 9.7 19.3 0.00 0.03 0.03 71 1002.3
20190422094610 12 38 11.3 17.7 0.00 0.03 0.03 71 1002.2
20190422094024 12 35 4.8 25.7 0.00 0.03 0.03 72 1002.1
20190422092504 12 311 9.7 20.9 0.00 0.03 0.03 74 1002.2
20190422092058 11 319 12.9 20.9 0.00 0.03 0.03 74 1002.2
20190422085526 11 254 8.0 22.5 0.00 0.03 0.03 74 1002.3
20190422085035 11 5 11.3 22.5 0.00 0.03 0.03 75 1002.3
20190422084014 11 350 9.7 22.5 0.00 0.03 0.03 75 1002.3